Latest Weather Observations for Hervey Bay

IDQ60801

Issued at 5:52 am EST Monday 17 December 2018 (issued every 10 minutes, with the page automatically refreshed every 10 minutes)

About weather observations | Map of weather stations | Latest weather observations for QLD | Other Formats
Station Details ID: 040405 Name: HERVEY BAY AIRPORT Lat: -25.32 Lon: 152.88 Height: 12.98 m
Data from the previous 72 hours. | See also: Recent months at Hervey Bay
Date/Time
EST
Temp
°C
App
Temp
°C
Dew
Point
°C
Rel
Hum
%
Delta-T
°C
Wind Press
QNH
hPa
Press
MSL
hPa
Rain since
9am
mm
Dir  Spd
km/h
Gust
km/h
Spd
kts
Gust
kts
17/05:30am 23.8 25.6 21.1 85 1.8 E 13 19 7 10 1007.9 1007.8 9.6
17/05:00am 23.6 25.0 21.1 86 1.6 E 15 20 8 11 1007.5 1007.4 9.6
17/04:54am 23.8 24.9 21.3 86 1.6 E 17 24 9 13 1007.4 1007.3 9.6
17/04:38am 23.5 25.8 21.4 88 1.4 ESE 11 17 6 9 1007.4 1007.3 9.6
17/04:30am 23.5 25.3 21.2 87 1.5 E 13 19 7 10 1007.5 1007.4 9.6
17/04:00am 23.6 25.7 21.7 89 1.3 E 13 17 7 9 1007.0 1006.9 9.6
17/03:49am 23.4 26.5 21.5 89 1.3 E 7 15 4 8 1007.0 1006.9 9.6
17/03:37am 23.4 26.2 21.5 89 1.3 E 9 15 5 8 1007.1 1007.0 9.6
17/03:30am 23.5 25.1 21.4 88 1.4 ENE 15 20 8 11 1006.8 1006.7 9.6
17/03:28am 23.5 25.1 21.4 88 1.4 E 15 20 8 11 1006.7 1006.6 9.6
17/03:15am 23.4 26.3 21.7 90 1.1 E 9 17 5 9 1007.0 1006.9 9.6
17/03:14am 23.3 26.0 21.4 89 1.3 E 9 17 5 9 1007.0 1006.9 9.6
17/03:00am 23.4 25.5 21.7 90 1.1 E 13 19 7 10 1006.9 1006.8 9.6
17/02:56am 23.3 25.3 21.6 90 1.1 E 13 19 7 10 1006.9 1006.8 9.6
17/02:30am 23.2 26.2 22.0 93 0.8 E 9 15 5 8 1006.9 1006.8 9.6
17/02:00am 23.0 27.7 22.0 94 0.7 CALM 0 0 0 0 1007.0 1006.9 9.6
17/01:48am 23.0 27.8 22.2 95 0.5 CALM 0 0 0 0 1007.0 1006.9 9.6
17/01:41am 22.9 27.6 21.9 94 0.7 CALM 0 0 0 0 1007.1 1007.0 9.6
17/01:30am 22.9 27.2 21.9 94 0.7 SSW 2 9 1 5 1007.3 1007.2 9.6
17/01:16am 22.7 26.1 21.7 94 0.7 SE 6 9 3 5 1007.4 1007.3 9.2
17/01:04am 22.8 26.7 21.8 94 0.7 S 4 13 2 7 1007.4 1007.3 9.2
17/01:00am 22.7 26.5 21.7 94 0.7 SSW 4 7 2 4 1007.4 1007.3 9.2
17/12:30am 22.7 25.8 21.5 93 0.8 W 7 9 4 5 1007.8 1007.7 9.0
17/12:00am 22.7 25.5 21.5 93 0.8 WSW 9 11 5 6 1008.1 1008.0 9.0
 
Date/Time
EST
Temp
°C
App
Temp
°C
Dew
Point
°C
Rel
Hum
%
Delta-T
°C
Wind Press
QNH
hPa
Press
MSL
hPa
Rain since
9am
mm
Dir  Spd
km/h
Gust
km/h
Spd
kts
Gust
kts
16/11:30pm 22.7 25.5 21.5 93 0.8 SSW 9 15 5 8 1008.3 1008.2 9.0
16/11:00pm 22.8 25.5 21.4 92 0.9 SSW 9 11 5 6 1008.5 1008.4 8.8
16/10:30pm 22.7 25.3 21.2 91 1.0 S 9 13 5 7 1008.5 1008.4 8.8
16/10:00pm 23.1 25.7 21.2 89 1.2 S 9 17 5 9 1008.3 1008.2 8.8
16/09:30pm 23.5 26.3 20.8 85 1.8 E 7 9 4 5 1007.9 1007.8 8.6
16/09:00pm 23.8 25.2 21.1 85 1.8 ESE 15 22 8 12 1008.4 1008.3 8.4
16/08:34pm 23.5 22.3 20.8 85 1.8 ENE 28 46 15 25 1006.6 1006.5 8.4
16/08:30pm 23.4 22.9 20.7 85 1.8 ENE 24 37 13 20 1006.8 1006.7 8.4
16/08:00pm 23.1 21.9 20.8 87 1.5 ENE 28 41 15 22 1007.1 1007.0 8.4
16/07:30pm 23.4 24.2 21.7 90 1.1 ENE 20 30 11 16 1007.7 1007.6 8.2
16/07:00pm 23.4 24.0 21.3 88 1.4 ENE 20 30 11 16 1007.9 1007.8 8.2
16/06:30pm 23.4 24.2 21.7 90 1.1 ENE 20 35 11 19 1007.7 1007.6 7.6
16/06:28pm 23.5 23.8 21.6 89 1.3 ENE 22 35 12 19 1007.7 1007.6 7.6
16/06:00pm 23.9 25.0 22.0 89 1.3 NE 19 28 10 15 1007.5 1007.4 7.0
16/05:30pm 24.3 26.0 22.4 89 1.3 NE 17 26 9 14 1007.5 1007.4 6.8
16/05:00pm 24.5 27.2 22.8 90 1.1 NE 13 17 7 9 1007.5 1007.4 6.6
16/04:30pm 24.3 26.5 22.6 90 1.1 NE 15 20 8 11 1007.2 1007.1 6.6
16/04:16pm 24.4 26.7 22.7 90 1.1 NE 15 20 8 11 1007.2 1007.1 6.4
16/04:00pm 24.4 26.3 22.8 91 1.1 ENE 17 28 9 15 1007.0 1006.9 6.4
16/03:30pm 24.1 25.6 22.7 92 0.9 NE 19 26 10 14 1006.4 1006.3 6.4
16/03:10pm 24.0 25.3 22.4 91 1.1 ENE 19 26 10 14 1007.0 1006.9 5.6
16/03:00pm 23.9 24.9 22.2 90 1.1 ENE 20 26 11 14 1007.3 1007.2 5.0
16/02:55pm 23.9 25.1 22.2 90 1.1 NE 19 26 10 14 1007.4 1007.3 4.0
16/02:30pm 24.1 27.0 22.4 90 1.1 NE 11 15 6 8 1007.9 1007.8 2.6
16/02:18pm 24.0 26.4 22.3 90 1.1 NE 13 17 7 9 1008.0 1007.9 2.6
16/02:00pm 24.5 27.0 22.4 88 1.4 N 13 20 7 11 1008.3 1008.2 1.8
16/01:30pm 24.4 27.4 21.3 83 2.0 N 7 9 4 5 1008.5 1008.4 1.4
16/01:00pm 25.0 26.1 21.3 80 2.4 NNE 17 20 9 11 1008.7 1008.6 1.0
16/12:30pm 27.1 30.5 22.7 77 3.0 NNE 9 13 5 7 1008.6 1008.5 1.0
16/12:00pm 26.2 30.5 23.3 84 2.0 NNW 6 9 3 5 1008.8 1008.7 1.0
16/11:30am 25.8 31.1 23.1 85 1.8 CALM 0 7 0 4 1009.4 1009.3 0.6
16/11:00am 26.1 28.8 22.8 82 2.2 NNE 13 17 7 9 1009.6 1009.5 0.0
16/10:43am 26.3 28.3 22.2 78 2.8 N 15 20 8 11 1009.8 1009.7 0.0
16/10:30am 26.7 29.0 22.1 76 3.1 N 13 19 7 10 1009.8 1009.7 0.0
16/10:24am 26.8 29.7 22.4 77 3.0 NNW 11 15 6 8 1009.8 1009.7 0.0
16/10:00am 26.8 29.9 22.2 76 3.1 ENE 9 11 5 6 1009.8 1009.7 0.0
16/09:30am 26.9 29.7 22.3 76 3.1 ENE 11 17 6 9 1009.6 1009.5 0.0
16/09:00am 26.4 28.7 22.0 77 3.0 ENE 13 17 7 9 1009.6 1009.5 0.2
16/08:30am 26.5 28.8 22.1 77 3.0 ENE 13 17 7 9 1009.4 1009.3 0.2
16/08:00am 26.5 28.5 22.3 78 2.8 NE 15 19 8 10 1009.3 1009.2 0.2
16/07:30am 26.4 29.0 22.7 80 2.5 NE 13 19 7 10 1009.2 1009.1 0.2
16/07:00am 25.7 29.0 22.6 83 2.1 E 9 13 5 7 1009.5 1009.4 0.2
16/06:30am 25.2 29.1 22.9 87 1.6 ENE 7 11 4 6 1009.4 1009.3 0.2
16/06:00am 24.4 28.7 22.7 90 1.1 S 4 7 2 4 1009.3 1009.2 0.2
16/05:30am 24.3 29.4 22.6 90 1.1 CALM 0 0 0 0 1009.0 1008.9 0.2
16/05:00am 24.2 27.8 22.3 89 1.3 WSW 7 9 4 5 1008.5 1008.4 0.2
16/04:30am 24.6 28.2 22.3 87 1.5 E 7 11 4 6 1007.9 1007.8 0.2
16/04:05am 24.8 27.4 22.7 88 1.4 ENE 13 15 7 8 1007.4 1007.3 0.2
16/04:00am 24.7 27.7 22.6 88 1.4 NE 11 15 6 8 1007.3 1007.2 0.2
16/03:35am 24.9 28.8 22.6 87 1.5 NE 6 9 3 5 1007.4 1007.3 0.2
16/03:30am 24.8 28.5 22.5 87 1.5 NE 7 9 4 5 1007.5 1007.4 0.2
16/03:00am 24.9 27.9 22.6 87 1.5 ENE 11 15 6 8 1007.8 1007.7 0.2
16/02:30am 24.7 29.2 22.2 86 1.7 NNE 2 6 1 3 1008.2 1008.1 0.2
16/02:00am 24.7 28.2 22.2 86 1.7 NNE 7 9 4 5 1008.1 1008.0 0.2
16/01:30am 25.1 28.6 22.2 84 1.9 ENE 7 11 4 6 1008.0 1007.9 0.2
16/01:00am 25.0 28.0 21.9 83 2.1 NE 9 13 5 7 1008.0 1007.9 0.2
16/12:30am 25.0 28.1 22.1 84 1.9 ENE 9 13 5 7 1008.4 1008.3 0.2
16/12:00am 25.0 27.8 22.3 85 1.8 E 11 17 6 9 1008.4 1008.3 0.2
 
Date/Time
EST
Temp
°C
App
Temp
°C
Dew
Point
°C
Rel
Hum
%
Delta-T
°C
Wind Press
QNH
hPa
Press
MSL
hPa
Rain since
9am
mm
Dir  Spd
km/h
Gust
km/h
Spd
kts
Gust
kts
15/11:30pm 25.1 27.6 22.4 85 1.8 E 13 17 7 9 1008.8 1008.7 0.2
15/11:00pm 25.2 28.0 22.3 84 1.9 E 11 13 6 7 1008.9 1008.8 0.2
15/10:30pm 25.3 28.9 22.4 84 1.9 NE 7 9 4 5 1009.1 1009.0 0.2
15/10:00pm 25.2 28.4 22.3 84 1.9 ENE 9 11 5 6 1009.0 1008.9 0.2
15/09:30pm 25.2 28.4 22.3 84 1.9 ENE 9 13 5 7 1009.0 1008.9 0.2
15/09:00pm 25.4 28.2 22.3 83 2.1 NE 11 13 6 7 1009.2 1009.1 0.2
15/08:30pm 25.5 28.4 22.4 83 2.1 NE 11 15 6 8 1008.9 1008.8 0.2
15/08:00pm 25.5 27.6 22.4 83 2.1 NE 15 20 8 11 1008.7 1008.6 0.2
15/07:30pm 25.6 26.9 22.3 82 2.2 NE 19 26 10 14 1008.4 1008.3 0.2
15/07:00pm 25.7 27.5 22.6 83 2.1 NE 17 24 9 13 1008.2 1008.1 0.2
15/06:30pm 25.7 27.5 22.6 83 2.1 NE 17 24 9 13 1007.8 1007.7 0.2
15/06:16pm 25.8 27.2 22.5 82 2.2 NE 19 30 10 16 1008.0 1007.9 0.2
15/06:00pm 25.9 27.7 22.6 82 2.2 NE 17 24 9 13 1008.0 1007.9 0.2
15/05:58pm 26.0 27.9 22.7 82 2.2 NE 17 24 9 13 1008.0 1007.9 0.2
15/05:30pm 26.1 27.0 22.6 81 2.4 NNE 22 30 12 16 1007.4 1007.3 0.2
15/05:00pm 26.5 27.8 22.6 79 2.6 NNE 20 30 11 16 1007.3 1007.2 0.2
15/04:30pm 26.3 27.7 22.8 81 2.4 NNE 20 26 11 14 1007.3 1007.2 0.2
15/04:00pm 26.8 26.7 22.2 76 3.1 NNE 26 35 14 19 1006.4 1006.3 0.2
15/03:30pm 27.3 28.6 22.7 76 3.1 NNE 20 28 11 15 1006.4 1006.3 0.2
15/03:00pm 27.6 29.2 22.8 75 3.3 NNE 19 26 10 14 1006.6 1006.5 0.2
15/02:30pm 27.9 29.3 22.6 73 3.6 NNE 19 24 10 13 1006.7 1006.6 0.2
15/02:00pm 28.4 30.9 23.1 73 3.6 ENE 15 19 8 10 1006.4 1006.3 0.2
15/01:30pm 28.0 30.9 22.5 72 3.7 ESE 11 13 6 7 1007.3 1007.2 0.2
15/01:00pm 28.1 30.8 22.8 73 3.6 ESE 13 19 7 10 1007.4 1007.3 0.2
15/12:30pm 28.6 30.9 22.8 71 3.9 E 15 20 8 11 1007.4 1007.3 0.2
15/12:00pm 28.7 31.9 22.4 68 4.3 NNE 9 13 5 7 1007.8 1007.7 0.2
15/11:30am 28.0 30.0 22.2 70 3.9 NNE 15 20 8 11 1008.4 1008.3 0.2
15/11:00am 28.2 31.3 22.9 73 3.6 NNE 11 17 6 9 1008.8 1008.7 0.2
15/10:30am 27.8 30.5 23.4 77 3.0 NE 15 20 8 11 1009.1 1009.0 0.0
15/10:00am 27.1 29.6 23.1 79 2.7 NE 15 22 8 12 1009.6 1009.5 0.0
15/09:30am 26.8 29.3 23.1 80 2.5 NE 15 20 8 11 1009.3 1009.2 0.0
15/09:00am 26.3 27.8 23.0 82 2.2 ENE 20 30 11 16 1009.1 1009.0 22.8
15/08:30am 25.4 26.7 22.7 85 1.8 ENE 20 26 11 14 1009.3 1009.2 22.8
15/08:00am 24.9 27.0 22.4 86 1.7 ENE 15 20 8 11 1009.3 1009.2 22.8
15/07:35am 24.8 27.1 22.7 88 1.4 ENE 15 20 8 11 1009.2 1009.1 22.8
15/07:30am 24.6 26.7 22.5 88 1.4 ENE 15 20 8 11 1009.2 1009.1 22.8
15/07:00am 24.4 27.0 22.7 90 1.1 E 13 19 7 10 1008.9 1008.8 22.8
15/06:30am 23.8 26.3 22.4 92 0.9 ESE 13 17 7 9 1008.5 1008.4 22.8
15/06:00am 23.2 26.7 22.2 94 0.7 ESE 7 9 4 5 1008.1 1008.0 22.8
15/05:41am 22.7 26.6 21.9 95 0.5 ESE 4 7 2 4 1007.8 1007.7 22.8
15/05:30am 22.7 27.0 21.9 95 0.5 SE 2 6 1 3 1007.6 1007.5 22.8
15/05:00am 22.6 26.5 21.8 95 0.5 SW 4 9 2 5 1007.2 1007.1 22.8
15/04:30am 22.4 26.9 21.6 95 0.5 CALM 0 0 0 0 1006.6 1006.5 22.8
15/04:00am 22.4 26.8 21.4 94 0.7 CALM 0 0 0 0 1006.4 1006.3 22.8
15/03:42am 22.4 25.5 21.4 94 0.7 E 7 9 4 5 1006.3 1006.2 22.8
15/03:30am 22.4 25.6 21.6 95 0.5 E 7 9 4 5 1006.2 1006.1 22.8
15/03:00am 22.3 25.1 21.5 95 0.5 NE 9 11 5 6 1006.1 1006.0 22.8
15/02:52am 22.4 25.1 21.4 94 0.7 NE 9 11 5 6 1006.3 1006.2 22.8
15/02:30am 22.1 25.2 21.1 94 0.7 NNE 6 7 3 4 1006.1 1006.0 22.8
15/02:07am 22.0 24.4 20.8 93 0.8 E 9 13 5 7 1006.3 1006.2 22.8
15/02:00am 22.2 24.7 21.0 93 0.8 SE 9 13 5 7 1006.3 1006.2 22.8
15/01:43am 21.9 24.5 20.5 92 0.9 SW 7 11 4 6 1006.6 1006.5 22.6
15/01:30am 22.1 22.5 20.6 91 1.0 NNW 19 24 10 13 1006.8 1006.7 22.6
15/01:05am 24.6 26.1 22.7 89 1.3 NE 19 26 10 14 1006.1 1006.0 5.8
15/01:00am 24.6 26.4 22.5 88 1.4 NE 17 24 9 13 1006.0 1005.9 3.8
15/12:30am 24.8 27.1 22.1 85 1.8 NE 13 22 7 12 1006.5 1006.4 3.8
15/12:06am 24.6 26.6 22.3 87 1.5 NE 15 20 8 11 1006.3 1006.2 3.8
15/12:00am 24.7 26.8 22.4 87 1.5 NE 15 26 8 14 1006.4 1006.3 3.8
 
Date/Time
EST
Temp
°C
App
Temp
°C
Dew
Point
°C
Rel
Hum
%
Delta-T
°C
Wind Press
QNH
hPa
Press
MSL
hPa
Rain since
9am
mm
Dir  Spd
km/h
Gust
km/h
Spd
kts
Gust
kts
14/11:30pm 24.5 25.7 22.2 87 1.5 NNE 19 28 10 15 1006.6 1006.5 3.8
14/11:00pm 24.8 25.5 22.3 86 1.7 NNE 22 32 12 17 1006.5 1006.4 3.8
14/10:30pm 24.8 25.7 22.7 88 1.4 NE 22 32 12 17 1006.4 1006.3 3.8
14/10:23pm 25.0 26.5 23.1 89 1.3 NE 20 30 11 16 1006.6 1006.5 3.8
14/10:00pm 24.8 26.3 22.7 88 1.4 NE 19 26 10 14 1006.7 1006.6 3.8
14/09:30pm 24.8 26.4 22.9 89 1.3 NE 19 30 10 16 1006.4 1006.3 3.8
14/09:07pm 24.6 26.0 22.8 90 1.2 NE 20 30 11 16 1005.8 1005.7 3.8
14/09:00pm 24.7 26.4 23.1 91 1.1 ENE 19 24 10 13 1005.7 1005.6 3.8
14/08:30pm 24.6 26.5 23.4 93 0.8 NE 19 32 10 17 1006.0 1005.9 3.8
14/08:04pm 24.6 25.1 22.7 89 1.3 NE 24 35 13 19 1005.5 1005.4 3.6
14/08:00pm 25.0 25.7 22.9 88 1.4 NE 24 32 13 17 1005.6 1005.5 3.6
14/07:30pm 24.9 26.8 22.8 88 1.4 NNE 17 26 9 14 1005.7 1005.6 3.6
14/07:00pm 25.5 27.4 22.8 85 1.8 NE 17 22 9 12 1005.4 1005.3 3.6
14/06:30pm 25.1 26.9 22.6 86 1.7 NE 17 22 9 12 1005.1 1005.0 3.6
14/06:19pm 25.0 26.8 22.5 86 1.7 NE 17 24 9 13 1005.2 1005.1 3.6
14/06:18pm 25.0 26.4 22.5 86 1.7 NE 19 24 10 13 1005.1 1005.0 3.6
14/06:00pm 25.1 26.1 22.2 84 1.9 NE 20 30 11 16 1004.9 1004.8 3.6
14/05:50pm 25.2 25.9 22.3 84 1.9 NE 22 33 12 18 1004.9 1004.8 3.6
14/05:42pm 25.3 26.4 22.4 84 1.9 NE 20 33 11 18 1004.8 1004.7 3.6
14/05:30pm 25.2 25.5 22.3 84 1.9 NE 24 33 13 18 1004.7 1004.6 3.6
14/05:00pm 25.5 26.1 22.8 85 1.8 NNE 24 33 13 18 1004.3 1004.2 3.6
14/04:54pm 25.7 26.4 23.0 85 1.8 NE 24 32 13 17 1004.1 1004.0 3.6
14/04:45pm 26.1 27.7 23.2 84 2.0 NNE 20 30 11 16 1004.0 1003.9 3.6
14/04:30pm 25.4 25.9 23.3 88 1.4 NE 26 39 14 21 1003.9 1003.8 3.6
14/04:00pm 25.6 26.6 23.5 88 1.4 NE 24 32 13 17 1003.6 1003.5 3.6
14/03:30pm 24.9 26.4 23.0 89 1.3 NNE 20 30 11 16 1003.8 1003.7 3.6
14/03:04pm 25.9 26.5 22.8 83 2.1 NE 24 39 13 21 1004.0 1003.9 3.6
14/03:00pm 26.0 26.3 22.9 83 2.1 NE 26 39 14 21 1004.0 1003.9 3.6
14/02:30pm 26.5 27.1 22.8 80 2.5 NE 24 33 13 18 1004.0 1003.9 3.6
14/02:15pm 26.4 26.7 22.9 81 2.4 NNE 26 39 14 21 1004.0 1003.9 3.6
14/02:00pm 26.4 26.3 22.9 81 2.4 NNE 28 35 15 19 1004.3 1004.2 3.6
14/01:36pm 26.0 27.6 23.3 85 1.8 NE 20 28 11 15 1004.6 1004.5 3.6
14/01:34pm 25.8 27.1 23.3 86 1.7 NE 22 35 12 19 1004.6 1004.5 3.6
14/01:30pm 25.7 26.5 23.2 86 1.7 NE 24 35 13 19 1004.7 1004.6 3.6
14/01:21pm 26.1 27.3 23.8 87 1.6 NE 24 30 13 16 1004.8 1004.7 3.6
14/01:20pm 25.9 26.8 23.4 86 1.7 NE 24 30 13 16 1004.8 1004.7 3.6
14/01:00pm 25.8 27.8 24.0 90 1.2 NE 20 28 11 15 1004.8 1004.7 3.6
14/12:59pm 25.2 26.7 23.1 88 1.4 NE 20 30 11 16 1004.8 1004.7 3.6
14/12:52pm 25.1 26.7 23.2 89 1.3 NE 20 30 11 16 1004.9 1004.8 3.6
14/12:44pm 25.2 26.8 23.3 89 1.3 NNE 20 32 11 17 1005.1 1005.0 3.4
14/12:33pm 25.0 27.1 23.1 89 1.3 NNE 17 28 9 15 1005.4 1005.3 3.2
14/12:30pm 24.9 26.5 22.8 88 1.4 NNE 19 28 10 15 1005.5 1005.4 3.2
14/12:19pm 24.6 25.8 22.1 86 1.7 NNE 19 28 10 15 1005.5 1005.4 3.0
14/12:00pm 25.6 26.9 22.7 84 2.0 NNE 20 30 11 16 1005.4 1005.3 1.4
14/11:57am 25.6 26.9 22.7 84 2.0 NNE 20 32 11 17 1005.4 1005.3 1.4
14/11:49am 25.4 26.4 22.1 82 2.2 NNE 20 32 11 17 1005.5 1005.4 1.4
14/11:30am 25.8 26.7 22.7 83 2.1 N 22 35 12 19 1005.6 1005.5 1.4
14/11:00am 25.6 26.9 22.7 84 2.0 N 20 30 11 16 1005.6 1005.5 1.4
14/10:30am 25.6 26.4 23.1 86 1.7 N 24 35 13 19 1005.4 1005.3 1.4
14/10:00am 25.5 26.3 23.2 87 1.6 NNE 24 35 13 19 1005.5 1005.4 1.4
14/09:55am 25.8 27.6 23.5 87 1.6 NNE 20 35 11 19 1005.4 1005.3 1.2
14/09:30am 26.2 27.1 23.3 84 2.0 NNE 24 35 13 19 1005.6 1005.5 1.0
14/09:14am 26.1 28.0 23.4 85 1.8 NNE 19 28 10 15 1005.7 1005.6 1.0
14/09:00am 26.6 28.2 23.3 82 2.3 NNE 20 28 11 15 1005.7 1005.6 0.8
14/08:58am 26.5 28.1 23.2 82 2.2 NNE 20 28 11 15 1005.7 1005.6 0.8
14/08:55am 26.5 28.1 23.2 82 2.2 NNE 20 26 11 14 1005.7 1005.6 0.8
14/08:35am 26.4 28.0 22.9 81 2.4 NNE 19 26 10 14 1005.8 1005.7 0.8
14/08:30am 26.4 27.9 23.1 82 2.2 NNE 20 28 11 15 1005.8 1005.7 0.8
14/08:29am 26.3 27.8 23.0 82 2.2 NNE 20 28 11 15 1005.8 1005.7 0.8
14/08:09am 26.5 28.2 23.0 81 2.4 NNE 19 28 10 15 1006.3 1006.2 0.8
14/08:00am 26.4 28.4 22.9 81 2.4 NNE 17 24 9 13 1006.1 1006.0 0.8
14/07:47am 26.2 27.8 22.9 82 2.2 NNE 19 28 10 15 1006.2 1006.1 0.8
14/07:31am 26.2 28.7 23.1 83 2.1 NNE 15 20 8 11 1006.3 1006.2 0.8
14/07:30am 26.3 28.8 23.2 83 2.1 NNE 15 20 8 11 1006.2 1006.1 0.8
14/07:00am 26.1 28.0 22.8 82 2.2 NNE 17 24 9 13 1006.4 1006.3 0.8
14/06:30am 26.0 28.4 22.9 83 2.1 N 15 22 8 12 1006.0 1005.9 0.8
14/06:00am 25.8 28.2 22.9 84 2.0 NNE 15 20 8 11 1005.9 1005.8 0.8

Other Formats:

Comma delimited format used in spreadsheet applications
http://www.bom.gov.au/fwo/IDQ60801/IDQ60801.95565.axf

JavaScript Object Notation format (JSON) in row-major order
http://www.bom.gov.au/fwo/IDQ60801/IDQ60801.95565.json